Time;durP1;ratioP1;P1;durP2;ratioP2;P2;SDS_P1;SDS_P2;PMS_P1;PMS_P2;Temp;Humidity;BMP_temperature;BMP_pressure;BME280_temperature;BME280_humidity;BME280_pressure;Samples;Min_cycle;Max_cycle;Signal;HPM_P1;HPM_P2
2021/05/14 00:00:07;;;;;;;50.60;33.67;;;;;;;13.20;83.59;99413.69;5105772;28;20050;-63
2021/05/14 00:02:33;;;;;;;47.28;32.35;;;;;;;13.21;83.71;99402.38;5105919;28;20024;-63
2021/05/14 00:04:59;;;;;;;43.50;32.03;;;;;;;13.26;83.63;99397.84;5105536;28;20031;-62
2021/05/14 00:07:24;;;;;;;47.08;31.90;;;;;;;13.32;83.54;99404.59;5105826;28;20079;-62
2021/05/14 00:09:50;;;;;;;44.95;31.35;;;;;;;13.32;83.59;99395.00;5105228;28;20024;-64
2021/05/14 00:12:15;;;;;;;43.53;30.35;;;;;;;13.35;83.61;99400.13;5105638;28;20080;-63
2021/05/14 00:14:40;;;;;;;41.90;29.90;;;;;;;13.32;83.36;99389.78;5105614;28;20028;-63
2021/05/14 00:17:07;;;;;;;41.38;28.33;;;;;;;13.30;83.43;99385.56;5105664;28;20020;-63
2021/05/14 00:19:32;;;;;;;41.00;29.17;;;;;;;13.26;83.30;99383.06;5105620;28;20263;-62
2021/05/14 00:21:58;;;;;;;42.92;29.92;;;;;;;13.29;83.63;99382.09;5105506;28;20273;-63
2021/05/14 00:24:23;;;;;;;41.95;29.83;;;;;;;13.30;83.08;99382.94;5105158;28;20403;-62
2021/05/14 00:26:48;;;;;;;38.47;28.25;;;;;;;13.29;83.53;99376.88;5104033;28;20044;-63
2021/05/14 00:29:13;;;;;;;42.45;28.35;;;;;;;13.31;83.24;99385.50;5105273;28;20016;-63
2021/05/14 00:31:39;;;;;;;35.05;25.33;;;;;;;13.28;83.24;99383.00;5105380;28;20052;-63
2021/05/14 00:34:04;;;;;;;40.42;27.13;;;;;;;13.24;83.30;99378.81;5105221;28;20023;-62
2021/05/14 00:36:29;;;;;;;40.03;27.27;;;;;;;13.23;83.54;99379.69;5105278;28;20051;-62
2021/05/14 00:38:55;;;;;;;44.97;28.45;;;;;;;13.20;83.30;99374.59;5105187;28;20028;-63
2021/05/14 00:41:20;;;;;;;47.42;30.48;;;;;;;13.14;83.20;99373.94;5104898;28;20055;-62
2021/05/14 00:43:46;;;;;;;40.05;28.23;;;;;;;13.13;83.32;99376.59;5105024;28;20020;-63
2021/05/14 00:46:11;;;;;;;44.38;30.17;;;;;;;13.09;83.57;99378.47;5104982;28;20376;-63
2021/05/14 00:48:38;;;;;;;43.47;30.55;;;;;;;13.05;83.53;99371.63;5105020;28;20023;-63
2021/05/14 00:51:05;;;;;;;46.90;30.10;;;;;;;13.02;83.50;99377.81;5104649;28;20509;-63
2021/05/14 00:53:30;;;;;;;43.92;30.88;;;;;;;12.98;83.59;99378.84;5104806;28;20035;-63
2021/05/14 00:55:55;;;;;;;44.85;30.60;;;;;;;12.96;83.63;99382.38;5104489;28;20114;-63
2021/05/14 00:58:21;;;;;;;49.00;32.55;;;;;;;12.93;83.38;99388.56;5104884;28;20020;-63
2021/05/14 01:00:46;;;;;;;54.08;31.52;;;;;;;12.88;83.50;99390.47;5104795;28;20015;-62
2021/05/14 01:03:15;;;;;;;45.70;29.75;;;;;;;12.81;83.13;99383.78;5104606;28;20381;-62
2021/05/14 01:05:42;;;;;;;48.45;30.58;;;;;;;12.71;83.29;99385.84;5104966;28;20418;-63
2021/05/14 01:08:08;;;;;;;48.22;31.42;;;;;;;12.62;83.40;99382.63;5104778;28;20021;-63
2021/05/14 01:10:33;;;;;;;51.33;31.80;;;;;;;12.56;83.58;99384.59;5104124;28;20034;-63
2021/05/14 01:12:59;;;;;;;41.90;29.77;;;;;;;12.50;83.83;99380.44;5104546;28;20024;-63
2021/05/14 01:15:24;;;;;;;40.78;28.83;;;;;;;12.48;84.09;99377.03;5103857;28;20020;-62
2021/05/14 01:17:49;;;;;;;43.20;29.90;;;;;;;12.49;84.19;99371.78;5104212;28;20024;-61
2021/05/14 01:20:15;;;;;;;38.90;28.58;;;;;;;12.51;84.29;99371.72;5104459;28;20031;-62
2021/05/14 01:22:42;;;;;;;40.28;27.40;;;;;;;12.55;84.28;99377.69;5104344;28;20020;-61
2021/05/14 01:25:08;;;;;;;36.45;27.33;;;;;;;12.57;84.29;99381.94;5104173;28;20059;-61
2021/05/14 01:27:33;;;;;;;33.65;25.20;;;;;;;12.58;84.16;99378.44;5104250;28;20024;-61
2021/05/14 01:29:58;;;;;;;36.47;26.85;;;;;;;12.60;84.37;99374.00;5104132;28;20247;-63
2021/05/14 01:32:24;;;;;;;33.13;24.60;;;;;;;12.59;84.25;99369.72;5104206;28;20043;-62
2021/05/14 01:34:49;;;;;;;31.38;25.15;;;;;;;12.58;84.24;99373.25;5104008;28;20024;-62
2021/05/14 01:37:15;;;;;;;28.40;22.88;;;;;;;12.61;84.13;99378.34;5104095;28;20024;-63
2021/05/14 01:39:41;;;;;;;26.13;20.98;;;;;;;12.62;84.19;99384.41;5103672;28;20106;-61
2021/05/14 01:42:07;;;;;;;23.52;19.48;;;;;;;12.60;84.11;99381.81;5104185;28;20019;-61
2021/05/14 01:44:32;;;;;;;23.38;18.25;;;;;;;12.63;84.09;99371.34;5103942;28;20023;-62
2021/05/14 01:46:58;;;;;;;16.83;14.20;;;;;;;12.69;83.47;99372.88;5104031;28;20114;-63
2021/05/14 01:49:23;;;;;;;18.20;13.68;;;;;;;12.71;83.79;99368.47;5103657;28;20047;-62
2021/05/14 01:51:49;;;;;;;13.93;11.20;;;;;;;12.82;83.00;99365.50;5103947;28;20027;-61
2021/05/14 01:54:15;;;;;;;15.90;12.13;;;;;;;12.86;82.29;99359.25;5103659;28;20484;-62
2021/05/14 01:56:45;;;;;;;13.32;11.75;;;;;;;12.90;82.27;99357.41;5103452;28;20480;-62
2021/05/14 01:59:11;;;;;;;15.38;11.85;;;;;;;12.91;81.88;99350.47;5103615;28;20020;-62
2021/05/14 02:01:36;;;;;;;12.13;10.85;;;;;;;12.96;81.56;99348.50;5103852;28;20153;-62
2021/05/14 02:04:01;;;;;;;13.75;9.82;;;;;;;13.02;80.77;99346.56;5103717;28;20472;-62
2021/05/14 02:06:27;;;;;;;13.27;10.38;;;;;;;13.02;80.42;99341.34;5103676;28;20020;-62
2021/05/14 02:08:52;;;;;;;12.45;10.77;;;;;;;13.04;79.91;99346.50;5103730;28;20089;-64
2021/05/14 02:11:18;;;;;;;14.00;10.45;;;;;;;13.05;79.72;99355.16;5102117;28;20052;-62
2021/05/14 02:13:43;;;;;;;15.48;11.38;;;;;;;13.04;79.50;99341.28;5103799;28;20073;-62
2021/05/14 02:16:09;;;;;;;15.43;11.65;;;;;;;13.04;79.45;99343.03;5103578;28;20051;-62
2021/05/14 02:18:37;;;;;;;12.68;10.82;;;;;;;12.97;79.65;99345.03;5103668;28;20025;-62
2021/05/14 02:21:03;;;;;;;13.40;10.45;;;;;;;12.96;79.44;99348.50;5103902;28;20032;-63
2021/05/14 02:23:28;;;;;;;13.15;11.50;;;;;;;12.93;79.45;99357.31;5103555;28;20387;-62
2021/05/14 02:25:55;;;;;;;16.63;13.45;;;;;;;12.85;79.85;99352.38;5103409;28;20039;-62
2021/05/14 02:28:21;;;;;;;16.05;14.20;;;;;;;12.79;79.93;99354.31;5106745;28;20027;-62
2021/05/14 02:30:46;;;;;;;14.38;12.32;;;;;;;12.76;79.98;99355.28;5107452;28;20036;-62
2021/05/14 02:33:12;;;;;;;18.15;15.13;;;;;;;12.70;80.08;99355.50;5107646;28;20016;-62
2021/05/14 02:35:37;;;;;;;15.85;13.65;;;;;;;12.64;80.36;99357.41;5107505;28;20435;-62
2021/05/14 02:38:05;;;;;;;16.75;14.80;;;;;;;12.62;80.19;99359.19;5107443;28;20107;-62
2021/05/14 02:40:31;;;;;;;20.25;15.73;;;;;;;12.56;80.50;99355.94;5107095;28;20020;-62
2021/05/14 02:42:56;;;;;;;17.92;14.20;;;;;;;12.54;80.44;99361.22;5107416;28;20034;-62
2021/05/14 02:45:23;;;;;;;17.63;12.50;;;;;;;12.50;80.67;99357.00;5107469;28;20048;-62
2021/05/14 02:47:49;;;;;;;13.80;12.35;;;;;;;12.50;80.42;99355.28;5107525;28;20028;-62
2021/05/14 02:50:15;;;;;;;13.70;12.15;;;;;;;12.50;80.54;99359.63;5107054;28;20036;-62
2021/05/14 02:52:41;;;;;;;13.65;12.20;;;;;;;12.54;80.39;99349.97;5107258;28;20503;-62
2021/05/14 02:55:07;;;;;;;18.08;13.25;;;;;;;12.54;80.34;99356.00;5106815;28;20091;-62
2021/05/14 02:57:33;;;;;;;18.25;12.63;;;;;;;12.55;80.20;99349.06;5106963;28;20023;-63
2021/05/14 02:59:58;;;;;;;18.15;13.55;;;;;;;12.56;80.21;99346.41;5106840;28;20020;-62
2021/05/14 03:02:24;;;;;;;13.80;12.40;;;;;;;12.63;79.92;99347.03;5106974;28;20079;-62
2021/05/14 03:04:49;;;;;;;13.93;12.50;;;;;;;12.58;80.12;99349.81;5106734;28;20016;-62
2021/05/14 03:07:14;;;;;;;21.88;13.40;;;;;;;12.58;79.86;99352.41;5106892;28;20065;-62
2021/05/14 03:09:40;;;;;;;13.85;12.23;;;;;;;12.57;79.98;99350.69;5106367;28;20091;-61
2021/05/14 03:12:05;;;;;;;14.55;13.10;;;;;;;12.56;79.90;99343.78;5106917;28;20052;-62
2021/05/14 03:14:31;;;;;;;14.57;13.07;;;;;;;12.56;80.04;99335.97;5106851;28;20529;-62
2021/05/14 03:16:56;;;;;;;14.00;12.32;;;;;;;12.57;79.68;99344.66;5106540;28;20103;-62
2021/05/14 03:19:22;;;;;;;14.23;11.30;;;;;;;12.57;80.18;99334.25;5106751;28;20020;-63
2021/05/14 03:21:47;;;;;;;13.30;11.90;;;;;;;12.67;80.38;99332.19;5106661;28;20022;-62
2021/05/14 03:24:12;;;;;;;15.32;11.38;;;;;;;12.79;80.00;99317.88;5106399;28;20030;-62
2021/05/14 03:26:38;;;;;;;14.40;11.00;;;;;;;12.92;79.83;99328.69;5106341;28;20082;-63
2021/05/14 03:29:03;;;;;;;15.70;12.85;;;;;;;13.02;79.51;99322.25;5106520;28;20024;-62
2021/05/14 03:31:29;;;;;;;17.90;12.02;;;;;;;12.99;79.62;99312.78;5106443;28;20024;-62
2021/05/14 03:33:54;;;;;;;13.85;11.48;;;;;;;13.08;79.85;99331.59;5106607;28;20028;-62
2021/05/14 03:36:21;;;;;;;16.35;12.60;;;;;;;13.09;79.48;99348.94;5106502;28;20015;-62
2021/05/14 03:38:48;;;;;;;15.45;13.50;;;;;;;12.97;79.16;99347.63;5105822;28;20024;-62
2021/05/14 03:41:31;;;;;;;17.25;14.30;;;;;;;12.81;79.58;99348.16;5106158;28;20024;-62
2021/05/14 03:43:58;;;;;;;18.45;13.68;;;;;;;12.69;79.44;99354.66;5106402;28;20058;-62
2021/05/14 03:46:26;;;;;;;15.27;13.63;;;;;;;12.56;79.61;99354.22;5106512;28;20051;-62
2021/05/14 03:48:51;;;;;;;16.30;14.50;;;;;;;12.50;79.63;99342.25;5106257;28;20079;-62
2021/05/14 03:51:17;;;;;;;13.07;11.68;;;;;;;12.48;80.00;99340.59;5105951;28;20060;-63
2021/05/14 03:53:42;;;;;;;14.93;12.98;;;;;;;12.52;79.89;99347.41;5106189;28;20020;-62
2021/05/14 03:56:07;;;;;;;17.02;13.35;;;;;;;12.47;80.34;99349.31;5104340;28;20115;-62
2021/05/14 03:58:33;;;;;;;14.80;13.18;;;;;;;12.50;80.51;99344.00;5104668;28;20080;-62
2021/05/14 04:00:59;;;;;;;15.07;13.48;;;;;;;12.52;80.57;99363.03;5106036;28;20028;-62
2021/05/14 04:03:24;;;;;;;18.90;13.65;;;;;;;12.54;80.86;99349.97;5106013;28;20035;-62
2021/05/14 04:05:49;;;;;;;16.40;13.82;;;;;;;12.54;80.90;99350.78;5105866;28;20031;-62
2021/05/14 04:08:15;;;;;;;15.00;13.15;;;;;;;12.56;80.75;99351.59;5105652;28;20028;-62
2021/05/14 04:16:06;;;;;;;13.40;11.73;;;;;;;12.74;80.29;99342.31;5105485;28;20499;-62
2021/05/14 04:18:33;;;;;;;14.65;11.30;;;;;;;12.71;80.43;99342.44;5105365;28;20019;-61
2021/05/14 04:20:58;;;;;;;15.48;12.50;;;;;;;12.75;80.57;99340.53;5105483;28;20031;-61
2021/05/14 04:23:24;;;;;;;14.18;12.57;;;;;;;12.78;80.49;99332.63;5105334;28;20020;-61
2021/05/14 04:25:49;;;;;;;13.13;11.73;;;;;;;12.84;80.47;99332.41;5104980;28;20031;-62
2021/05/14 04:28:15;;;;;;;18.13;11.77;;;;;;;12.84;80.43;99328.97;5105286;28;20020;-62
2021/05/14 04:30:40;;;;;;;12.70;11.45;;;;;;;12.88;80.12;99326.22;5104986;28;20039;-62
2021/05/14 04:33:06;;;;;;;16.83;13.75;;;;;;;12.75;80.26;99323.19;5105239;28;20031;-62
2021/05/14 04:35:32;;;;;;;16.33;13.57;;;;;;;12.68;80.90;99332.13;5105039;28;20464;-62
2021/05/14 04:37:58;;;;;;;19.73;14.23;;;;;;;12.63;81.23;99340.09;5105160;28;20081;-61
2021/05/14 04:40:23;;;;;;;15.73;14.13;;;;;;;12.59;81.17;99343.69;5104591;28;20458;-61
2021/05/14 04:42:49;;;;;;;16.63;13.80;;;;;;;12.64;81.00;99336.56;5104957;28;20024;-62
2021/05/14 04:45:15;;;;;;;14.55;11.43;;;;;;;12.62;80.83;99327.97;5104786;28;20043;-62
2021/05/14 04:47:40;;;;;;;14.77;12.52;;;;;;;12.68;81.09;99334.72;5104802;28;20448;-62
2021/05/14 04:50:06;;;;;;;14.23;10.93;;;;;;;12.82;81.37;99330.78;5104142;28;20050;-62
2021/05/14 04:52:31;;;;;;;12.20;10.98;;;;;;;13.02;81.40;99335.25;5104511;28;20073;-60
2021/05/14 04:54:57;;;;;;;12.57;10.77;;;;;;;13.32;81.88;99336.81;5104294;28;20024;-61
2021/05/14 04:57:23;;;;;;;12.20;10.10;;;;;;;13.78;82.10;99336.88;5104912;28;20024;-61
2021/05/14 04:59:48;;;;;;;12.10;9.90;;;;;;;14.29;81.75;99339.22;5104700;28;20460;-61
2021/05/14 05:02:14;;;;;;;10.82;9.38;;;;;;;14.70;80.69;99333.16;5104727;28;20032;-61
2021/05/14 05:04:41;;;;;;;16.23;9.93;;;;;;;14.93;79.87;99333.97;5104540;28;20020;-60
2021/05/14 05:07:09;;;;;;;10.35;9.35;;;;;;;14.94;77.07;99332.16;5104575;28;20028;-60
2021/05/14 05:09:35;;;;;;;11.07;9.77;;;;;;;14.80;77.17;99327.56;5104470;28;20020;-60
2021/05/14 05:12:00;;;;;;;10.07;9.15;;;;;;;14.81;77.94;99334.50;5104342;28;20081;-61
2021/05/14 05:14:27;;;;;;;12.60;9.45;;;;;;;14.95;77.97;99331.28;5104492;28;20024;-61
2021/05/14 05:16:53;;;;;;;9.27;8.38;;;;;;;15.16;77.38;99332.06;5104645;28;20024;-62
2021/05/14 05:19:19;;;;;;;10.82;9.70;;;;;;;15.37;77.06;99334.63;5119993;28;20031;-62
2021/05/14 05:21:44;;;;;;;10.77;9.77;;;;;;;15.51;76.26;99343.63;5104449;28;20031;-62
2021/05/14 05:24:09;;;;;;;12.05;9.55;;;;;;;15.56;74.99;99352.94;5104383;28;20111;-64
2021/05/14 05:26:35;;;;;;;12.10;10.50;;;;;;;15.55;75.12;99358.25;5103978;28;20024;-64
2021/05/14 05:29:00;;;;;;;11.48;9.93;;;;;;;15.61;75.14;99353.59;5104322;28;20020;-64
2021/05/14 05:31:26;;;;;;;11.82;10.48;;;;;;;15.64;74.88;99359.59;5104077;28;20035;-64
2021/05/14 05:33:51;;;;;;;15.07;10.35;;;;;;;15.59;74.93;99342.34;5104145;28;20028;-64
2021/05/14 05:36:17;;;;;;;12.38;10.23;;;;;;;15.71;75.15;99345.28;5104198;28;20138;-63
2021/05/14 05:38:42;;;;;;;10.75;9.23;;;;;;;15.82;74.06;99348.25;5104039;28;20494;-63
2021/05/14 05:41:08;;;;;;;11.90;8.98;;;;;;;15.79;73.25;99337.94;5103820;28;20012;-62
2021/05/14 05:43:33;;;;;;;10.57;9.35;;;;;;;15.73;72.23;99341.69;5104242;28;20026;-62
2021/05/14 05:45:58;;;;;;;11.73;9.73;;;;;;;15.67;72.44;99341.97;5103892;28;20031;-63
2021/05/14 05:48:24;;;;;;;13.63;9.40;;;;;;;15.60;72.21;99340.56;5103890;28;20016;-64
2021/05/14 05:50:50;;;;;;;11.43;9.77;;;;;;;15.50;71.49;99348.00;5103556;28;20621;-63
2021/05/14 05:53:16;;;;;;;12.68;10.02;;;;;;;15.32;71.53;99342.69;5103945;28;20494;-63
2021/05/14 05:55:41;;;;;;;11.65;10.20;;;;;;;15.14;71.82;99347.00;5103676;28;20028;-63
2021/05/14 05:58:12;;;;;;;12.80;10.05;;;;;;;14.95;72.11;99354.78;5104010;28;20074;-64
2021/05/14 06:00:38;;;;;;;11.63;10.43;;;;;;;14.76;72.37;99358.16;5103546;28;20039;-63
2021/05/14 06:03:05;;;;;;;14.70;11.32;;;;;;;14.61;72.72;99355.31;5103350;28;20377;-63
2021/05/14 06:05:31;;;;;;;16.13;10.93;;;;;;;14.52;73.42;99366.09;5103823;28;20076;-64
2021/05/14 06:07:56;;;;;;;15.23;11.30;;;;;;;14.47;73.62;99373.31;5103882;28;20053;-63
2021/05/14 06:10:21;;;;;;;13.90;12.50;;;;;;;14.44;73.81;99381.25;5103542;28;20043;-62
2021/05/14 06:12:47;;;;;;;13.57;11.93;;;;;;;14.37;74.33;99383.28;5103845;28;20024;-62
2021/05/14 06:15:13;;;;;;;14.65;12.23;;;;;;;14.36;74.51;99374.56;5103729;28;20081;-63
2021/05/14 06:17:40;;;;;;;13.52;11.77;;;;;;;14.37;74.66;99373.69;5103985;28;20077;-63
2021/05/14 06:20:08;;;;;;;12.38;11.07;;;;;;;14.34;74.68;99363.38;5103673;28;20016;-63
2021/05/14 06:22:33;;;;;;;13.52;10.18;;;;;;;14.39;74.99;99365.78;5103631;28;20026;-63
2021/05/14 06:24:58;;;;;;;17.23;11.77;;;;;;;14.37;74.96;99367.59;5103340;28;20084;-63
2021/05/14 06:27:24;;;;;;;12.45;10.30;;;;;;;14.35;75.00;99372.03;5103928;28;20012;-63
2021/05/14 06:29:49;;;;;;;11.18;9.27;;;;;;;14.25;74.91;99371.56;5102118;28;20024;-63
2021/05/14 06:32:15;;;;;;;11.07;8.63;;;;;;;14.23;74.96;99373.41;5103654;28;20020;-63
2021/05/14 06:34:40;;;;;;;11.02;8.65;;;;;;;14.17;74.93;99381.47;5103257;28;20051;-63
2021/05/14 06:37:06;;;;;;;11.65;9.38;;;;;;;14.13;74.98;99379.00;5103661;28;20020;-63
2021/05/14 06:39:32;;;;;;;10.43;8.50;;;;;;;14.16;75.28;99371.94;5103356;28;20034;-63
2021/05/14 06:41:57;;;;;;;9.20;8.25;;;;;;;14.30;74.90;99371.38;5103206;28;20048;-63
2021/05/14 06:44:22;;;;;;;9.52;8.45;;;;;;;14.46;74.73;99363.75;5103389;28;20024;-63
2021/05/14 06:46:48;;;;;;;9.18;8.07;;;;;;;14.61;74.11;99365.75;5103391;28;20020;-63
2021/05/14 06:49:13;;;;;;;7.13;6.43;;;;;;;14.80;71.43;99359.75;5103385;28;20070;-63
2021/05/14 06:51:38;;;;;;;10.00;6.95;;;;;;;14.82;71.25;99351.84;5103410;28;20046;-63
2021/05/14 06:54:05;;;;;;;8.05;6.78;;;;;;;14.90;71.18;99348.91;5103453;28;20069;-63
2021/05/14 06:56:30;;;;;;;10.93;7.20;;;;;;;15.07;71.63;99358.63;5102992;28;20016;-63
2021/05/14 06:58:56;;;;;;;8.68;6.88;;;;;;;15.22;71.36;99354.50;5103345;28;20039;-63
2021/05/14 07:01:22;;;;;;;9.65;6.53;;;;;;;15.43;71.14;99355.25;5103320;28;20079;-64
2021/05/14 07:03:48;;;;;;;7.72;6.93;;;;;;;15.60;70.31;99359.75;5103017;28;20522;-63
2021/05/14 07:06:15;;;;;;;7.38;5.60;;;;;;;15.82;69.14;99355.25;5103045;28;20032;-63
2021/05/14 07:08:41;;;;;;;7.00;6.25;;;;;;;15.89;67.60;99342.72;5103214;28;20549;-63
2021/05/14 07:11:07;;;;;;;5.47;4.72;;;;;;;15.86;65.56;99348.97;5102809;28;20036;-64
2021/05/14 07:13:32;;;;;;;6.75;4.82;;;;;;;15.78;64.69;99340.63;5103245;28;20031;-63
2021/05/14 07:15:59;;;;;;;9.80;5.35;;;;;;;15.81;64.28;99338.72;5106671;28;20427;-63
2021/05/14 07:18:25;;;;;;;5.90;4.53;;;;;;;15.90;62.32;99340.03;5106843;28;20024;-63
2021/05/14 07:20:50;;;;;;;5.88;4.15;;;;;;;15.99;61.22;99336.16;5106757;28;20027;-62
2021/05/14 07:23:15;;;;;;;6.13;4.53;;;;;;;15.94;61.50;99327.66;5106671;28;20115;-63
2021/05/14 07:25:41;;;;;;;5.05;4.43;;;;;;;15.95;62.13;99329.34;5106450;28;20476;-63
2021/05/14 07:28:06;;;;;;;6.45;4.85;;;;;;;16.00;61.72;99332.63;5106487;28;20459;-63
2021/05/14 07:30:31;;;;;;;6.65;5.00;;;;;;;16.00;62.21;99334.38;5106323;28;20028;-63
2021/05/14 07:32:57;;;;;;;7.75;4.45;;;;;;;15.97;62.14;99341.47;5106542;28;20020;-62
2021/05/14 07:35:23;;;;;;;6.15;5.40;;;;;;;15.93;61.97;99333.81;5106211;28;20016;-62
2021/05/14 07:37:48;;;;;;;8.10;4.80;;;;;;;15.93;61.56;99339.03;5106449;28;20020;-63
2021/05/14 07:40:13;;;;;;;5.68;4.82;;;;;;;15.88;62.26;99354.13;5106140;28;20016;-62
2021/05/14 07:42:39;;;;;;;7.35;5.18;;;;;;;15.80;62.97;99355.31;5106205;28;20456;-62
2021/05/14 07:45:05;;;;;;;6.70;5.13;;;;;;;15.85;63.05;99366.44;5106012;28;20031;-62
2021/05/14 07:47:30;;;;;;;7.88;4.68;;;;;;;15.92;63.44;99358.28;5106190;28;20023;-62
2021/05/14 07:49:56;;;;;;;8.02;5.53;;;;;;;16.01;62.63;99352.63;5105919;28;20044;-62
2021/05/14 07:52:21;;;;;;;7.28;4.95;;;;;;;16.07;62.83;99348.91;5106180;28;20028;-62
2021/05/14 07:54:46;;;;;;;9.80;5.13;;;;;;;16.13;61.79;99343.34;5105682;28;20353;-62
2021/05/14 07:57:12;;;;;;;7.68;4.90;;;;;;;16.08;61.73;99348.81;5106125;28;20024;-62
2021/05/14 07:59:37;;;;;;;8.40;5.80;;;;;;;16.07;60.74;99352.34;5105951;28;20020;-62
2021/05/14 08:02:03;;;;;;;5.60;4.28;;;;;;;15.99;61.06;99357.09;5121501;28;20073;-63
2021/05/14 08:04:28;;;;;;;5.55;4.65;;;;;;;15.99;60.51;99367.56;5105934;28;20024;-62
2021/05/14 08:06:53;;;;;;;8.70;4.75;;;;;;;15.96;59.98;99375.53;5105704;28;20035;-62
2021/05/14 08:09:23;;;;;;;7.75;5.55;;;;;;;15.90;60.02;99370.59;5105712;28;20190;-62
2021/05/14 08:11:50;;;;;;;9.95;5.13;;;;;;;15.91;59.17;99374.94;5105234;28;20012;-62
2021/05/14 08:14:17;;;;;;;9.70;5.10;;;;;;;15.91;59.34;99383.59;5105603;28;20060;-62
2021/05/14 08:16:42;;;;;;;7.05;5.13;;;;;;;15.94;59.05;99393.09;5105340;28;20020;-62
2021/05/14 08:19:10;;;;;;;7.20;5.43;;;;;;;15.94;58.97;99382.63;5105338;28;20081;-62
2021/05/14 08:21:36;;;;;;;6.60;4.88;;;;;;;15.94;59.35;99383.47;5105407;28;20016;-63
2021/05/14 08:24:01;;;;;;;8.18;5.22;;;;;;;16.00;59.30;99374.50;5105301;28;20039;-62
2021/05/14 08:26:27;;;;;;;9.05;5.10;;;;;;;15.99;59.75;99375.41;5104952;28;20035;-62
2021/05/14 08:28:52;;;;;;;7.15;4.95;;;;;;;16.04;59.84;99377.84;5105170;28;20051;-63
2021/05/14 08:31:18;;;;;;;7.85;5.22;;;;;;;16.10;59.71;99378.38;5105319;28;20016;-63
2021/05/14 08:33:43;;;;;;;7.80;5.38;;;;;;;16.15;59.39;99385.19;5105156;28;20027;-62
2021/05/14 08:36:09;;;;;;;6.80;5.30;;;;;;;16.19;59.08;99389.34;5104838;28;20031;-62
2021/05/14 08:38:35;;;;;;;6.97;4.85;;;;;;;16.20;59.19;99386.63;5105050;28;20028;-62
2021/05/14 08:41:07;;;;;;;6.70;5.00;;;;;;;16.31;58.53;99387.91;5104744;28;20023;-62
2021/05/14 08:43:33;;;;;;;7.32;5.88;;;;;;;16.32;58.81;99387.81;5104959;28;20020;-62
2021/05/14 08:46:03;;;;;;;8.55;5.10;;;;;;;16.44;58.27;99385.50;5104890;28;20048;-62
2021/05/14 08:48:31;;;;;;;8.45;5.88;;;;;;;16.54;58.00;99385.91;5105286;28;20024;-62
2021/05/14 08:50:56;;;;;;;6.68;5.40;;;;;;;16.61;57.89;99397.78;5104594;28;20051;-62
2021/05/14 08:53:22;;;;;;;6.35;5.40;;;;;;;16.69;57.66;99385.13;5104738;28;20103;-62
2021/05/14 08:55:47;;;;;;;7.35;5.65;;;;;;;16.67;57.89;99380.91;5104412;28;20039;-62
2021/05/14 08:58:13;;;;;;;8.25;6.00;;;;;;;16.71;57.56;99390.28;5104765;28;20020;-62
2021/05/14 09:00:39;;;;;;;7.57;5.22;;;;;;;16.69;57.49;99382.50;5104537;28;20024;-61
2021/05/14 09:03:09;;;;;;;8.25;5.72;;;;;;;16.78;58.01;99375.97;5120388;28;20026;-61
2021/05/14 09:05:35;;;;;;;6.15;5.55;;;;;;;17.17;56.81;99383.66;5104464;28;20079;-62
2021/05/14 09:08:02;;;;;;;6.05;5.05;;;;;;;17.68;55.53;99386.16;5104653;28;20028;-62
2021/05/14 09:10:30;;;;;;;10.48;5.45;;;;;;;18.62;55.30;99390.66;5104006;28;20016;-62
2021/05/14 09:12:56;;;;;;;6.80;5.28;;;;;;;19.90;53.02;99386.47;5104289;28;20058;-62
2021/05/14 09:15:24;;;;;;;8.52;5.50;;;;;;;21.12;49.71;99389.09;5104298;28;20088;-62
2021/05/14 09:18:09;;;;;;;6.88;5.55;;;;;;;22.12;48.69;99382.13;5104219;28;20050;-63
2021/05/14 09:20:36;;;;;;;7.82;6.10;;;;;;;22.87;44.96;99386.34;5104056;28;20024;-63
2021/05/14 09:23:21;;;;;;;7.40;5.35;;;;;;;23.38;44.27;99384.19;5104509;28;20054;-63
2021/05/14 09:25:54;;;;;;;8.98;5.53;;;;;;;24.00;43.62;99378.44;5103770;28;20024;-62
2021/05/14 09:28:27;;;;;;;9.07;5.70;;;;;;;24.79;42.51;99386.19;5104025;28;20081;-63
2021/05/14 09:31:19;;;;;;;7.13;5.13;;;;;;;25.32;41.29;99379.06;5104046;28;20097;-62
2021/05/14 09:33:47;;;;;;;7.38;4.93;;;;;;;25.74;39.63;99368.31;5102983;28;20088;-63
2021/05/14 09:36:17;;;;;;;6.00;4.82;;;;;;;26.25;38.00;99380.66;5103858;28;20157;-63
2021/05/14 09:38:50;;;;;;;7.30;5.35;;;;;;;26.31;35.75;99381.91;5103864;28;20039;-63
2021/05/14 09:41:28;;;;;;;6.80;6.03;;;;;;;25.62;37.01;99377.38;5103624;28;20020;-63
2021/05/14 09:43:57;;;;;;;6.88;6.18;;;;;;;24.99;37.27;99374.75;5104027;28;20023;-62
2021/05/14 09:46:25;;;;;;;8.20;6.43;;;;;;;24.75;37.10;99377.63;5103700;28;20016;-63
2021/05/14 09:48:59;;;;;;;8.65;6.18;;;;;;;24.75;37.17;99378.50;5103397;28;20034;-62
2021/05/14 09:51:25;;;;;;;8.68;6.10;;;;;;;24.42;37.57;99383.03;5103532;28;20055;-62
2021/05/14 09:53:51;;;;;;;7.32;6.57;;;;;;;24.44;38.23;99378.41;5103705;28;20059;-63
2021/05/14 09:56:27;;;;;;;9.80;7.03;;;;;;;24.56;37.03;99378.34;5103340;28;20027;-62
2021/05/14 09:58:58;;;;;;;10.30;6.43;;;;;;;24.82;37.85;99378.81;5103870;28;20079;-63
2021/05/14 10:01:24;;;;;;;7.70;6.15;;;;;;;25.36;35.93;99372.50;5103736;28;20140;-62
2021/05/14 10:03:51;;;;;;;10.18;6.57;;;;;;;25.65;36.26;99368.28;5103665;28;20024;-64
2021/05/14 10:06:18;;;;;;;8.75;6.43;;;;;;;25.81;35.55;99365.09;5103541;28;20092;-63
2021/05/14 10:08:51;;;;;;;6.88;6.15;;;;;;;25.89;35.05;99367.06;5103734;28;20043;-62
2021/05/14 10:11:20;;;;;;;8.50;6.10;;;;;;;26.22;34.88;99363.16;5103387;28;20054;-63
2021/05/14 10:13:46;;;;;;;11.10;6.68;;;;;;;26.22;34.12;99364.97;5103767;28;20085;-63
2021/05/14 10:16:12;;;;;;;10.98;6.60;;;;;;;26.22;35.16;99365.81;5103690;28;20020;-62
2021/05/14 10:18:43;;;;;;;9.52;6.03;;;;;;;26.80;34.89;99367.72;5103648;28;20411;-62
2021/05/14 10:21:11;;;;;;;14.85;6.40;;;;;;;27.59;33.90;99356.72;5103692;28;20259;-63
2021/05/14 10:23:37;;;;;;;9.88;6.20;;;;;;;28.09;32.80;99357.25;5103789;28;20051;-63
2021/05/14 10:26:07;;;;;;;7.15;6.22;;;;;;;28.33;32.05;99353.16;5103320;28;20335;-63
2021/05/14 10:28:46;;;;;;;6.80;6.20;;;;;;;28.52;31.66;99351.28;5103665;28;20024;-63
2021/05/14 10:31:18;;;;;;;12.60;6.82;;;;;;;27.99;32.16;99344.00;5103531;28;20024;-63
2021/05/14 10:33:57;;;;;;;8.50;6.18;;;;;;;27.58;33.13;99347.91;5103519;28;20028;-64
2021/05/14 10:36:24;;;;;;;9.25;6.72;;;;;;;27.45;32.93;99342.94;5103484;28;20058;-64
2021/05/14 10:39:15;;;;;;;8.68;6.13;;;;;;;27.70;32.60;99342.41;5103465;28;20051;-63
2021/05/14 10:41:59;;;;;;;7.60;6.32;;;;;;;28.58;31.75;99339.97;5102896;28;20069;-63
2021/05/14 10:44:48;;;;;;;7.20;6.53;;;;;;;29.09;30.62;99341.94;5103477;28;20044;-63
2021/05/14 10:47:25;;;;;;;9.70;5.68;;;;;;;29.32;29.56;99336.03;5103282;28;20023;-63
2021/05/14 10:50:05;;;;;;;8.90;6.05;;;;;;;29.40;29.57;99338.72;5104878;28;20139;-63
2021/05/14 10:52:33;;;;;;;8.15;6.43;;;;;;;29.65;29.54;99328.09;5107388;28;20032;-63
2021/05/14 10:54:58;;;;;;;7.20;6.50;;;;;;;29.78;29.18;99335.66;5106879;28;20043;-63
2021/05/14 10:57:39;;;;;;;8.40;5.88;;;;;;;29.62;29.74;99331.13;5122630;28;20511;-63
2021/05/14 11:00:23;;;;;;;9.23;6.13;;;;;;;29.33;28.95;99329.66;5107074;28;20247;-63
2021/05/14 11:03:10;;;;;;;7.15;6.22;;;;;;;28.99;30.29;99317.19;5107023;28;20083;-63
2021/05/14 11:05:38;;;;;;;8.80;6.68;;;;;;;28.58;30.48;99326.63;5106599;28;20048;-62
2021/05/14 11:08:04;;;;;;;8.25;6.47;;;;;;;28.12;31.79;99319.59;5106839;28;20111;-62
2021/05/14 11:10:31;;;;;;;14.25;6.10;;;;;;;27.35;32.56;99321.69;5106411;28;20053;-61
2021/05/14 11:12:58;;;;;;;6.28;5.75;;;;;;;26.62;33.79;99328.53;5106785;28;20036;-62
2021/05/14 11:15:35;;;;;;;6.43;5.35;;;;;;;26.05;34.94;99323.97;5105187;28;20553;-62
2021/05/14 11:18:07;;;;;;;9.57;6.85;;;;;;;25.59;35.96;99322.63;5106782;28;20050;-62
2021/05/14 11:20:50;;;;;;;10.73;6.82;;;;;;;25.12;37.09;99325.88;5106627;28;20020;-62
2021/05/14 11:23:38;;;;;;;7.70;6.90;;;;;;;24.83;37.41;99314.13;5106512;28;20024;-62
2021/05/14 11:26:07;;;;;;;7.93;7.10;;;;;;;24.43;38.50;99321.03;5106206;28;20300;-62
2021/05/14 11:28:47;;;;;;;7.80;6.50;;;;;;;24.02;38.67;99320.84;5106550;28;20020;-62